createdAt,value
2018-11-06T00:00:12.362Z,16.69
2018-11-06T00:01:13.896Z,16.74
2018-11-06T00:02:14.259Z,16.77
2018-11-06T00:03:15.338Z,16.79
2018-11-06T00:04:16.135Z,16.79
2018-11-06T00:05:17.215Z,16.76
2018-11-06T00:06:18.290Z,16.79
2018-11-06T00:07:19.094Z,16.76
2018-11-06T00:08:20.643Z,16.72
2018-11-06T00:09:22.364Z,16.8
2018-11-06T00:10:21.796Z,16.76
2018-11-06T00:11:22.772Z,16.76
2018-11-06T00:12:23.848Z,16.79
2018-11-06T00:13:24.928Z,16.79
2018-11-06T00:14:25.726Z,16.77
2018-11-06T00:15:27.256Z,16.76
2018-11-06T00:16:27.781Z,16.69
2018-11-06T00:17:29.414Z,16.8
2018-11-06T00:18:29.496Z,16.73
2018-11-06T00:19:30.288Z,16.82
2018-11-06T00:20:30.810Z,16.79
2018-11-06T00:21:31.924Z,16.76
2018-11-06T00:22:32.724Z,16.74
2018-11-06T00:23:33.529Z,16.68
2018-11-06T00:24:33.890Z,16.65
2018-11-06T00:25:34.689Z,16.79
2018-11-06T00:26:35.211Z,16.76
2018-11-06T00:27:35.569Z,16.65
2018-11-06T00:28:36.090Z,16.61
2018-11-06T00:29:37.165Z,16.68
2018-11-06T00:30:38.794Z,16.73
2018-11-06T00:31:39.489Z,16.73
2018-11-06T00:32:40.564Z,16.72
2018-11-06T00:33:41.366Z,16.62
2018-11-06T00:34:41.887Z,16.62
2018-11-06T00:35:42.407Z,16.72
2018-11-06T00:36:43.488Z,16.68
2018-11-06T00:37:45.404Z,16.68
2018-11-06T00:38:45.646Z,16.68
2018-11-06T00:39:47.165Z,16.69
2018-11-06T00:40:47.798Z,16.58
2018-11-06T00:41:48.088Z,16.59
2018-11-06T00:42:48.604Z,16.57
2018-11-06T00:43:49.683Z,16.58
2018-11-06T00:44:50.929Z,16.54
2018-11-06T00:45:52.004Z,16.64
2018-11-06T00:46:52.636Z,16.57
2018-11-06T00:47:53.267Z,16.55
2018-11-06T00:48:53.345Z,16.58
2018-11-06T00:49:54.427Z,16.49
2018-11-06T00:50:54.951Z,16.55
2018-11-06T00:51:55.508Z,16.47
2018-11-06T00:52:56.309Z,16.44
2018-11-06T00:53:57.384Z,16.34
2018-11-06T00:54:58.460Z,16.29
2018-11-06T00:55:59.096Z,16.26
2018-11-06T00:56:59.893Z,16.28
2018-11-06T00:58:01.253Z,16.26
2018-11-06T00:59:02.611Z,16.26
2018-11-06T01:00:03.133Z,16.28
2018-11-06T01:01:04.651Z,16.32
2018-11-06T01:02:06.040Z,16.29
2018-11-06T01:03:06.393Z,16.31
2018-11-06T01:04:07.195Z,16.28
2018-11-06T01:05:07.996Z,16.31
2018-11-06T01:06:08.359Z,16.31
2018-11-06T01:07:09.437Z,16.34
2018-11-06T01:08:10.380Z,16.34
2018-11-06T01:09:11.455Z,16.36
2018-11-06T01:10:11.980Z,16.37
2018-11-06T01:11:12.776Z,16.34
2018-11-06T01:12:13.520Z,16.31
2018-11-06T01:13:15.320Z,16.32
2018-11-06T01:14:15.396Z,16.37
2018-11-06T01:15:16.755Z,16.32
2018-11-06T01:16:17.273Z,16.41
2018-11-06T01:17:17.909Z,16.37
2018-11-06T01:18:18.430Z,16.43
2018-11-06T01:19:18.950Z,16.39
2018-11-06T01:20:20.032Z,16.46
2018-11-06T01:21:21.114Z,16.41
2018-11-06T01:22:22.367Z,16.39
2018-11-06T01:23:23.722Z,16.39
2018-11-06T01:24:23.970Z,16.41
2018-11-06T01:25:25.059Z,16.44
2018-11-06T01:26:25.849Z,16.51
2018-11-06T01:27:26.203Z,16.47
2018-11-06T01:28:26.558Z,16.41
2018-11-06T01:29:27.356Z,16.39
2018-11-06T01:30:28.158Z,16.41
2018-11-06T01:31:29.233Z,16.43
2018-11-06T01:32:30.513Z,16.46
2018-11-06T01:33:31.593Z,16.47
2018-11-06T01:34:32.113Z,16.5
2018-11-06T01:35:32.914Z,16.5
2018-11-06T01:36:33.716Z,16.43
2018-11-06T01:37:35.073Z,16.54
2018-11-06T01:38:35.870Z,16.5
2018-11-06T01:39:36.224Z,16.47
2018-11-06T01:40:36.857Z,16.5
2018-11-06T01:41:36.935Z,16.47
2018-11-06T01:42:37.910Z,16.46
2018-11-06T01:43:38.430Z,16.55
2018-11-06T01:44:39.232Z,16.47
2018-11-06T01:45:39.757Z,16.58
2018-11-06T01:46:40.565Z,16.62
2018-11-06T01:47:41.368Z,16.5
2018-11-06T01:48:41.164Z,16.55
2018-11-06T01:49:41.959Z,16.55
2018-11-06T01:50:43.041Z,16.5
2018-11-06T01:51:43.393Z,16.54
2018-11-06T01:52:44.478Z,16.55
2018-11-06T01:53:44.001Z,16.43
2018-11-06T01:54:44.521Z,16.46
2018-11-06T01:55:45.319Z,16.47
2018-11-06T01:56:45.838Z,16.44
2018-11-06T01:57:47.476Z,16.41
2018-11-06T01:58:48.289Z,16.55
2018-11-06T01:59:49.921Z,16.51
2018-11-06T02:00:50.440Z,16.43
2018-11-06T02:01:51.795Z,16.46
2018-11-06T02:02:52.771Z,16.37
2018-11-06T02:03:53.570Z,16.41
2018-11-06T02:04:54.090Z,16.43
2018-11-06T02:05:55.331Z,16.37
2018-11-06T02:06:56.687Z,16.36
2018-11-06T02:07:57.212Z,16.36
2018-11-06T02:08:57.845Z,16.4
2018-11-06T02:09:57.923Z,16.36
2018-11-06T02:10:57.998Z,16.37
2018-11-06T02:11:58.794Z,16.37
2018-11-06T02:12:59.211Z,16.36
2018-11-06T02:13:59.732Z,16.32
2018-11-06T02:15:01.093Z,16.39
2018-11-06T02:16:02.171Z,16.4
2018-11-06T02:17:02.696Z,16.36
2018-11-06T02:18:05.051Z,16.36
2018-11-06T02:19:05.300Z,16.39
2018-11-06T02:20:05.822Z,16.39
2018-11-06T02:21:07.342Z,16.32
2018-11-06T02:22:08.704Z,16.41
2018-11-06T02:23:09.512Z,16.37
2018-11-06T02:24:09.755Z,16.37
2018-11-06T02:25:11.277Z,16.4
2018-11-06T02:26:12.083Z,16.4
2018-11-06T02:27:12.892Z,16.5
2018-11-06T02:28:13.693Z,16.49
2018-11-06T02:29:14.212Z,16.47
2018-11-06T02:30:15.589Z,16.49
2018-11-06T02:31:16.225Z,16.54
2018-11-06T02:32:17.375Z,16.41
2018-11-06T02:33:18.754Z,16.54
2018-11-06T02:34:20.387Z,16.44
2018-11-06T02:35:21.477Z,16.47
2018-11-06T02:36:21.830Z,16.49
2018-11-06T02:37:22.648Z,16.46
2018-11-06T02:38:24.002Z,16.37
2018-11-06T02:39:24.805Z,16.44
2018-11-06T02:40:25.610Z,16.39
2018-11-06T02:41:26.969Z,16.37
2018-11-06T02:42:28.171Z,16.41
2018-11-06T02:43:28.006Z,16.39
2018-11-06T02:44:29.087Z,16.39
2018-11-06T02:45:29.721Z,16.31
2018-11-06T02:46:30.525Z,16.34
2018-11-06T02:47:31.335Z,16.29
2018-11-06T02:48:31.688Z,16.29
2018-11-06T02:49:32.777Z,16.31
2018-11-06T02:50:33.851Z,16.28
2018-11-06T02:51:34.483Z,16.34
2018-11-06T02:52:34.561Z,16.29
2018-11-06T02:53:35.838Z,16.36
2018-11-06T02:54:36.472Z,16.39
2018-11-06T02:55:37.614Z,16.39
2018-11-06T02:56:38.363Z,16.46
2018-11-06T02:57:39.011Z,16.46
2018-11-06T02:58:40.088Z,16.41
2018-11-06T02:59:41.274Z,16.39
2018-11-06T03:00:42.187Z,16.39
2018-11-06T03:01:42.543Z,16.37
2018-11-06T03:02:43.194Z,16.36
2018-11-06T03:03:43.705Z,16.39
2018-11-06T03:04:44.784Z,16.43
2018-11-06T03:05:45.728Z,16.4
2018-11-06T03:06:46.080Z,16.37
2018-11-06T03:07:46.883Z,16.4
2018-11-06T03:08:48.240Z,16.44
2018-11-06T03:09:48.594Z,16.46
2018-11-06T03:10:49.506Z,16.49
2018-11-06T03:11:50.148Z,16.47
2018-11-06T03:12:50.953Z,16.37
2018-11-06T03:13:51.825Z,16.4
2018-11-06T03:14:53.203Z,16.43
2018-11-06T03:15:54.564Z,16.4
2018-11-06T03:16:56.122Z,16.44
2018-11-06T03:17:56.546Z,16.37
2018-11-06T03:18:58.176Z,16.44
2018-11-06T03:19:59.265Z,16.41
2018-11-06T03:21:01.344Z,16.47
2018-11-06T03:22:02.613Z,16.58
2018-11-06T03:23:03.133Z,16.47
2018-11-06T03:24:04.139Z,16.37
2018-11-06T03:25:05.214Z,16.51
2018-11-06T03:26:06.012Z,16.51
2018-11-06T03:27:07.803Z,16.57
2018-11-06T03:28:08.139Z,16.58
2018-11-06T03:29:09.495Z,16.61
2018-11-06T03:30:09.854Z,16.47
2018-11-06T03:31:11.381Z,16.58
2018-11-06T03:32:12.290Z,16.44
2018-11-06T03:33:12.928Z,16.58
2018-11-06T03:34:14.023Z,16.51
2018-11-06T03:35:15.422Z,16.59
2018-11-06T03:36:16.219Z,16.54
2018-11-06T03:37:17.019Z,16.54
2018-11-06T03:38:18.664Z,16.57
2018-11-06T03:39:19.464Z,16.5
2018-11-06T03:40:20.835Z,16.54
2018-11-06T03:41:21.921Z,16.51
2018-11-06T03:42:23.109Z,16.58
2018-11-06T03:43:22.632Z,16.62
2018-11-06T03:44:23.828Z,16.54
2018-11-06T03:45:24.624Z,16.57
2018-11-06T03:46:25.146Z,16.58
2018-11-06T03:47:26.220Z,16.64
2018-11-06T03:48:27.299Z,16.62
2018-11-06T03:49:27.939Z,16.72
2018-11-06T03:50:28.853Z,16.59
2018-11-06T03:51:29.227Z,16.59
2018-11-06T03:52:31.141Z,16.59
2018-11-06T03:53:31.209Z,16.73
2018-11-06T03:54:31.743Z,16.57
2018-11-06T03:55:32.382Z,16.59
2018-11-06T03:56:33.463Z,16.57
2018-11-06T03:57:33.538Z,16.51
2018-11-06T03:58:34.892Z,16.61
2018-11-06T03:59:35.243Z,16.59
2018-11-06T04:00:36.678Z,16.61
2018-11-06T04:01:36.755Z,16.61
2018-11-06T04:02:38.115Z,16.58
2018-11-06T04:03:37.913Z,16.51
2018-11-06T04:04:39.163Z,16.55
2018-11-06T04:05:40.517Z,16.5
2018-11-06T04:06:40.610Z,16.61
2018-11-06T04:07:41.399Z,16.64
2018-11-06T04:08:42.475Z,16.58
2018-11-06T04:09:43.570Z,16.44
2018-11-06T04:10:45.197Z,16.41
2018-11-06T04:11:46.836Z,16.41
2018-11-06T04:12:46.359Z,16.41
2018-11-06T04:13:46.998Z,16.39
2018-11-06T04:14:48.970Z,16.44
2018-11-06T04:15:48.767Z,16.4
2018-11-06T04:16:49.863Z,16.41
2018-11-06T04:17:50.659Z,16.41
2018-11-06T04:18:51.041Z,16.37
2018-11-06T04:19:52.117Z,16.4
2018-11-06T04:20:53.205Z,16.49
2018-11-06T04:21:53.556Z,16.37
2018-11-06T04:22:54.355Z,16.39
2018-11-06T04:23:55.438Z,16.39
2018-11-06T04:24:56.831Z,16.43
2018-11-06T04:25:57.349Z,16.36
2018-11-06T04:26:58.152Z,16.32
2018-11-06T04:27:59.784Z,16.37
2018-11-06T04:29:00.585Z,16.26
2018-11-06T04:30:01.942Z,16.39
2018-11-06T04:31:02.031Z,16.34
2018-11-06T04:32:02.830Z,16.36
2018-11-06T04:33:02.909Z,16.36
2018-11-06T04:34:04.153Z,16.34
2018-11-06T04:35:04.963Z,16.29
2018-11-06T04:36:06.324Z,16.22
2018-11-06T04:37:07.244Z,16.22
2018-11-06T04:38:08.044Z,16.24
2018-11-06T04:39:08.840Z,16.16
2018-11-06T04:40:09.643Z,16.17
2018-11-06T04:41:09.730Z,16.13
2018-11-06T04:42:10.084Z,16.03
2018-11-06T04:43:10.767Z,16.05
2018-11-06T04:44:11.842Z,16.06
2018-11-06T04:45:12.374Z,16.08
2018-11-06T04:46:14.012Z,16.05
2018-11-06T04:47:15.087Z,16.08
2018-11-06T04:48:15.448Z,16.06
2018-11-06T04:49:16.678Z,16.18
2018-11-06T04:50:19.161Z,16.16
2018-11-06T04:51:18.263Z,16.21
2018-11-06T04:52:20.068Z,16.13
2018-11-06T04:53:21.292Z,16.22
2018-11-06T04:54:21.366Z,16.21
2018-11-06T04:55:22.896Z,16.13
2018-11-06T04:56:24.264Z,16.18
2018-11-06T04:57:24.616Z,16.13
2018-11-06T04:58:25.693Z,16.17
2018-11-06T04:59:26.494Z,16.09
2018-11-06T05:00:28.019Z,16.03
2018-11-06T05:01:29.377Z,16.1
2018-11-06T05:02:29.181Z,15.98
2018-11-06T05:03:30.268Z,16
2018-11-06T05:04:31.613Z,16.05
2018-11-06T05:05:32.154Z,16.03
2018-11-06T05:06:34.065Z,16.09
2018-11-06T05:07:34.145Z,16.05
2018-11-06T05:08:34.396Z,16.02
2018-11-06T05:09:35.194Z,16.02
2018-11-06T05:10:36.275Z,16.1
2018-11-06T05:11:36.679Z,16.16
2018-11-06T05:12:38.480Z,16.09
2018-11-06T05:13:39.127Z,16.06
2018-11-06T05:14:39.373Z,16.18
2018-11-06T05:15:40.246Z,16.13
2018-11-06T05:16:41.043Z,16.13
2018-11-06T05:17:41.119Z,16.17
2018-11-06T05:18:41.637Z,16.18
2018-11-06T05:19:42.162Z,16.17
2018-11-06T05:20:43.682Z,16.13
2018-11-06T05:21:43.772Z,16.17
2018-11-06T05:22:45.305Z,16.21
2018-11-06T05:23:45.819Z,16.24
2018-11-06T05:24:47.895Z,16.21
2018-11-06T05:25:48.509Z,16.18
2018-11-06T05:26:49.308Z,16.16
2018-11-06T05:27:50.109Z,16.08
2018-11-06T05:28:50.912Z,16.1
2018-11-06T05:29:52.003Z,16.08
2018-11-06T05:30:53.080Z,15.96
2018-11-06T05:31:53.153Z,15.96
2018-11-06T05:32:55.427Z,15.9
2018-11-06T05:33:56.341Z,15.92
2018-11-06T05:34:58.589Z,15.83
2018-11-06T05:36:10.065Z,15.8
2018-11-06T05:37:12.428Z,15.8
2018-11-06T05:38:12.226Z,15.76
2018-11-06T05:39:14.030Z,15.83
2018-11-06T05:40:14.818Z,15.87
2018-11-06T05:41:15.624Z,15.88
2018-11-06T05:42:16.145Z,15.88
2018-11-06T05:43:16.939Z,15.84
2018-11-06T05:44:18.305Z,15.83
2018-11-06T05:45:18.900Z,15.88
2018-11-06T05:46:19.687Z,15.85
2018-11-06T05:47:20.665Z,15.91
2018-11-06T05:48:21.187Z,15.9
2018-11-06T05:49:22.005Z,15.98
2018-11-06T05:50:22.853Z,15.92
2018-11-06T05:51:23.924Z,15.98
2018-11-06T05:52:25.003Z,15.88
2018-11-06T05:53:26.092Z,15.84
2018-11-06T05:54:27.011Z,15.94
2018-11-06T05:55:27.807Z,15.81
2018-11-06T05:56:28.332Z,15.85
2018-11-06T05:57:28.613Z,15.85
2018-11-06T05:58:29.414Z,15.85
2018-11-06T05:59:30.659Z,15.87
2018-11-06T06:00:33.597Z,15.87
2018-11-06T06:01:33.859Z,15.94
2018-11-06T06:02:34.383Z,15.83
2018-11-06T06:03:34.907Z,15.87
2018-11-06T06:04:36.434Z,15.92
2018-11-06T06:05:36.791Z,15.96
2018-11-06T06:06:37.038Z,15.9
2018-11-06T06:07:38.024Z,15.92
2018-11-06T06:08:38.828Z,15.84
2018-11-06T06:09:39.912Z,15.9
2018-11-06T06:10:40.992Z,15.99
2018-11-06T06:11:41.353Z,15.99
2018-11-06T06:12:42.709Z,15.98
2018-11-06T06:13:43.229Z,16.06
2018-11-06T06:14:44.030Z,15.96
2018-11-06T06:15:45.666Z,15.96
2018-11-06T06:16:46.483Z,16
2018-11-06T06:17:46.621Z,15.98
2018-11-06T06:18:46.866Z,16.05
2018-11-06T06:19:47.670Z,16.1
2018-11-06T06:20:48.466Z,16.13
2018-11-06T06:21:49.547Z,16.09
2018-11-06T06:22:50.631Z,16.09
2018-11-06T06:23:51.435Z,16.08
2018-11-06T06:24:52.514Z,16.17
2018-11-06T06:25:53.759Z,16.25
2018-11-06T06:26:55.283Z,16.26
2018-11-06T06:27:56.100Z,16.28
2018-11-06T06:28:57.624Z,16.36
2018-11-06T06:29:58.706Z,16.32
2018-11-06T06:30:59.233Z,16.4
2018-11-06T06:32:00.590Z,16.39
2018-11-06T06:33:01.947Z,16.46
2018-11-06T06:34:02.749Z,16.37
2018-11-06T06:35:04.053Z,16.41
2018-11-06T06:36:04.652Z,16.4
2018-11-06T06:37:05.456Z,16.54
2018-11-06T06:38:06.991Z,16.55
2018-11-06T06:39:07.516Z,16.49
2018-11-06T06:40:08.569Z,16.51
2018-11-06T06:41:09.710Z,16.51
2018-11-06T06:42:09.799Z,16.51
2018-11-06T06:43:10.879Z,16.58
2018-11-06T06:44:11.529Z,16.55
2018-11-06T06:45:12.337Z,16.55
2018-11-06T06:46:13.297Z,16.57
2018-11-06T06:47:13.809Z,16.58
2018-11-06T06:48:14.793Z,16.59
2018-11-06T06:49:15.876Z,16.62
2018-11-06T06:50:16.515Z,16.54
2018-11-06T06:51:17.874Z,16.64
2018-11-06T06:52:17.967Z,16.62
2018-11-06T06:53:18.330Z,16.79
2018-11-06T06:54:20.090Z,16.82
2018-11-06T06:55:20.813Z,16.77
2018-11-06T06:56:21.468Z,16.76
2018-11-06T06:57:23.271Z,16.77
2018-11-06T06:58:23.670Z,16.77
2018-11-06T06:59:24.476Z,16.89
2018-11-06T07:00:24.835Z,16.97
2018-11-06T07:01:25.480Z,16.98
2018-11-06T07:02:26.688Z,16.98
2018-11-06T07:03:27.342Z,17.13
2018-11-06T07:04:28.336Z,17.12
2018-11-06T07:05:28.958Z,17.19
2018-11-06T07:06:29.553Z,17.27
2018-11-06T07:07:30.290Z,17.27
2018-11-06T07:08:31.489Z,17.3
2018-11-06T07:09:31.423Z,17.38
2018-11-06T07:10:32.229Z,17.44
2018-11-06T07:11:32.774Z,17.38
2018-11-06T07:12:33.859Z,17.42
2018-11-06T07:13:34.661Z,17.46
2018-11-06T07:14:35.219Z,17.54
2018-11-06T07:15:35.824Z,17.66
2018-11-06T07:16:36.368Z,17.75
2018-11-06T07:17:36.890Z,17.94
2018-11-06T07:18:38.754Z,18.12
2018-11-06T07:19:39.054Z,18.21
2018-11-06T07:20:40.134Z,18.26
2018-11-06T07:21:40.943Z,18.41
2018-11-06T07:22:41.749Z,18.46
2018-11-06T07:23:42.834Z,18.63
2018-11-06T07:24:43.643Z,18.78
2018-11-06T07:25:44.008Z,18.78
2018-11-06T07:26:44.813Z,18.83
2018-11-06T07:27:46.177Z,19.07
2018-11-06T07:28:47.644Z,18.91
2018-11-06T07:29:48.199Z,18.98
2018-11-06T07:30:49.104Z,19.11
2018-11-06T07:31:49.638Z,19.27
2018-11-06T07:32:50.448Z,19.49
2018-11-06T07:33:51.538Z,19.44
2018-11-06T07:34:53.962Z,19.81
2018-11-06T07:35:54.813Z,20.15
2018-11-06T07:36:55.720Z,20.59
2018-11-06T07:37:56.364Z,20.93
2018-11-06T07:38:57.624Z,20.75
2018-11-06T07:39:57.713Z,20.39
2018-11-06T07:40:58.782Z,20.24
2018-11-06T07:41:59.508Z,20.19
2018-11-06T07:43:00.612Z,19.94
2018-11-06T07:44:01.423Z,19.92
2018-11-06T07:45:03.081Z,19.7
2018-11-06T07:46:03.337Z,19.57
2018-11-06T07:47:04.592Z,19.55
2018-11-06T07:48:05.675Z,19.41
2018-11-06T07:49:06.804Z,19.41
2018-11-06T07:50:07.715Z,19.44
2018-11-06T07:51:08.223Z,19.3
2018-11-06T07:52:08.853Z,19.27
2018-11-06T07:53:09.386Z,19.24
2018-11-06T07:54:10.749Z,19.38
2018-11-06T07:55:11.002Z,19.57
2018-11-06T07:56:13.105Z,19.66
2018-11-06T07:57:14.072Z,19.64
2018-11-06T07:58:14.887Z,19.72
2018-11-06T07:59:15.876Z,19.6
2018-11-06T08:00:16.971Z,19.79
2018-11-06T08:01:17.336Z,19.85
2018-11-06T08:02:18.423Z,19.93
2018-11-06T08:03:19.231Z,19.9
2018-11-06T08:04:21.036Z,19.94
2018-11-06T08:05:21.600Z,19.97
2018-11-06T08:06:22.446Z,20.03
2018-11-06T08:07:21.903Z,19.96
2018-11-06T08:08:22.635Z,19.97
2018-11-06T08:09:23.850Z,19.94
2018-11-06T08:10:24.602Z,19.96
2018-11-06T08:11:24.699Z,19.99
2018-11-06T08:12:25.784Z,19.99
2018-11-06T08:13:26.598Z,20.08
2018-11-06T08:14:27.229Z,20.15
2018-11-06T08:15:27.687Z,20.08
2018-11-06T08:16:28.785Z,20.12
2018-11-06T08:17:29.152Z,20.21
2018-11-06T08:18:30.242Z,20.22
2018-11-06T08:19:31.655Z,20.29
2018-11-06T08:20:32.400Z,20.44
2018-11-06T08:21:32.736Z,20.56
2018-11-06T08:22:33.539Z,20.52
2018-11-06T08:23:34.414Z,20.36
2018-11-06T08:24:35.068Z,20.34
2018-11-06T08:25:35.884Z,20.36
2018-11-06T08:26:36.973Z,20.55
2018-11-06T08:27:38.972Z,20.58
2018-11-06T08:28:39.055Z,20.6
2018-11-06T08:29:39.322Z,20.49
2018-11-06T08:30:41.764Z,20.33
2018-11-06T08:31:43.660Z,20.39
2018-11-06T08:32:45.433Z,20.21
2018-11-06T08:33:44.759Z,20.22
2018-11-06T08:34:46.303Z,20.11
2018-11-06T08:35:46.832Z,20.22
2018-11-06T08:36:48.917Z,20.12
2018-11-06T08:37:48.792Z,20.19
2018-11-06T08:38:49.880Z,20.21
2018-11-06T08:39:50.977Z,20.17
2018-11-06T08:40:51.061Z,20.14
2018-11-06T08:41:51.705Z,20.22
2018-11-06T08:42:52.521Z,20.3
2018-11-06T08:43:54.089Z,20.36
2018-11-06T08:44:54.507Z,20.3
2018-11-06T08:45:56.467Z,20.36
2018-11-06T08:46:56.244Z,20.27
2018-11-06T08:47:57.361Z,20.4
2018-11-06T08:48:59.322Z,20.4
2018-11-06T08:49:59.210Z,20.42
2018-11-06T08:50:59.229Z,20.39
2018-11-06T08:52:00.037Z,20.39
2018-11-06T08:52:59.844Z,20.4
2018-11-06T08:54:01.215Z,20.37
2018-11-06T08:55:01.753Z,20.55
2018-11-06T08:56:03.389Z,20.56
2018-11-06T08:57:03.643Z,20.59
2018-11-06T08:58:04.735Z,20.73
2018-11-06T08:59:05.263Z,20.74
2018-11-06T09:00:05.840Z,20.82
2018-11-06T09:01:06.651Z,20.83
2018-11-06T09:02:07.908Z,20.88
2018-11-06T09:03:08.441Z,21.04
2018-11-06T09:04:09.544Z,21.14
2018-11-06T09:05:10.627Z,21.17
2018-11-06T09:06:11.717Z,21.28
2018-11-06T09:07:12.815Z,21.37
2018-11-06T09:08:13.629Z,21.48
2018-11-06T09:09:14.471Z,21.54
2018-11-06T09:10:15.534Z,21.65
2018-11-06T09:11:16.347Z,21.66
2018-11-06T09:12:17.440Z,21.66
2018-11-06T09:13:18.257Z,21.7
2018-11-06T09:14:18.349Z,21.69
2018-11-06T09:15:18.886Z,21.77
2018-11-06T09:16:19.696Z,21.74
2018-11-06T09:17:20.507Z,21.69
2018-11-06T09:18:21.318Z,21.83
2018-11-06T09:19:22.572Z,21.78
2018-11-06T09:20:23.580Z,21.85
2018-11-06T09:21:24.113Z,21.89
2018-11-06T09:22:25.034Z,22.01
2018-11-06T09:23:25.123Z,22
2018-11-06T09:24:26.504Z,22
2018-11-06T09:25:26.870Z,22.12
2018-11-06T09:26:27.404Z,22.14
2018-11-06T09:27:28.491Z,22.31
2018-11-06T09:28:29.580Z,22.63
2018-11-06T09:29:30.670Z,22.83
2018-11-06T09:30:31.451Z,22.96
2018-11-06T09:31:32.823Z,23.04
2018-11-06T09:32:33.076Z,23.13
2018-11-06T09:33:34.610Z,23.23
2018-11-06T09:34:35.705Z,23.23
2018-11-06T09:35:36.516Z,23.42
2018-11-06T09:36:37.051Z,23.42
2018-11-06T09:37:38.142Z,23.63
2018-11-06T09:38:41.067Z,24.01
2018-11-06T09:39:40.967Z,24.01
2018-11-06T09:40:41.545Z,24.25
2018-11-06T09:41:42.650Z,24.41
2018-11-06T09:42:42.451Z,24.61
2018-11-06T09:43:43.543Z,24.48
2018-11-06T09:44:44.087Z,24.46
2018-11-06T09:45:45.457Z,24.5
2018-11-06T09:46:46.264Z,24.41
2018-11-06T09:47:46.803Z,24.4
2018-11-06T09:48:48.634Z,24.32
2018-11-06T09:49:48.564Z,24.26
2018-11-06T09:50:49.135Z,24.19
2018-11-06T09:51:49.887Z,23.88
2018-11-06T09:52:50.385Z,23.76
2018-11-06T09:53:51.032Z,23.32
2018-11-06T09:54:51.844Z,23.18
2018-11-06T09:55:52.656Z,23.14
2018-11-06T09:56:54.303Z,23.11
2018-11-06T09:57:54.121Z,23.11
2018-11-06T09:58:55.936Z,23.1
2018-11-06T09:59:56.758Z,23.16
2018-11-06T10:00:57.384Z,23.16
2018-11-06T10:01:57.918Z,23.2
2018-11-06T10:02:58.770Z,23.28
2018-11-06T10:03:59.864Z,23.32
2018-11-06T10:05:00.991Z,23.49
2018-11-06T10:06:02.672Z,23.54
2018-11-06T10:07:06.022Z,23.82
2018-11-06T10:07:15.466Z,23.82
2018-11-06T10:08:14.906Z,23.88
2018-11-06T10:09:17.219Z,24.04
2018-11-06T10:10:17.415Z,24.31
2018-11-06T10:11:18.234Z,24.53
2018-11-06T10:12:19.136Z,24.75
2018-11-06T10:13:19.676Z,24.92
2018-11-06T10:14:21.053Z,25.18
2018-11-06T10:15:21.155Z,25.37
2018-11-06T10:16:21.976Z,25.25
2018-11-06T10:17:23.068Z,25.54
2018-11-06T10:18:24.068Z,25.91
2018-11-06T10:19:25.162Z,25.95
2018-11-06T10:20:26.819Z,26.22
2018-11-06T10:21:27.785Z,26.08
2018-11-06T10:22:28.045Z,25.98
2018-11-06T10:23:29.976Z,26.27
2018-11-06T10:24:29.521Z,26.08
2018-11-06T10:25:30.352Z,26.13
2018-11-06T10:26:31.210Z,26.23
2018-11-06T10:27:32.329Z,26.29
2018-11-06T10:28:33.442Z,26.42
2018-11-06T10:29:33.989Z,26.67
2018-11-06T10:30:35.113Z,26.92
2018-11-06T10:31:35.508Z,27.18
2018-11-06T10:32:35.881Z,27.38
2018-11-06T10:33:39.452Z,27.64
2018-11-06T10:34:39.073Z,27.57
2018-11-06T10:35:39.726Z,27.88
2018-11-06T10:36:39.827Z,27.9
2018-11-06T10:37:41.088Z,27.44
2018-11-06T10:38:41.781Z,27.63
2018-11-06T10:39:43.141Z,27.23
2018-11-06T10:40:43.677Z,26.88
2018-11-06T10:41:44.225Z,26.67
2018-11-06T10:42:45.321Z,26.74
2018-11-06T10:43:47.100Z,26.83
2018-11-06T10:44:46.704Z,26.92
2018-11-06T10:45:47.245Z,27.16
2018-11-06T10:46:48.062Z,27.25
2018-11-06T10:47:48.613Z,27.44
2018-11-06T10:48:49.562Z,27.6
2018-11-06T10:49:50.893Z,27.41
2018-11-06T10:50:51.273Z,27.4
2018-11-06T10:51:51.879Z,27.52
2018-11-06T10:52:52.854Z,27.64
2018-11-06T10:53:54.293Z,27.67
2018-11-06T10:54:55.349Z,27.75
2018-11-06T10:55:55.719Z,27.75
2018-11-06T10:56:57.209Z,27.79
2018-11-06T10:57:58.327Z,27.85
2018-11-06T10:58:59.993Z,27.78
2018-11-06T10:59:59.590Z,27.9
2018-11-06T11:01:00.867Z,27.97
2018-11-06T11:02:04.292Z,28.04
2018-11-06T11:02:16.042Z,28.04
2018-11-06T11:02:27.942Z,28.08
2018-11-06T11:02:39.983Z,28.09
2018-11-06T11:03:39.320Z,28.16
2018-11-06T11:03:52.972Z,27.98
2018-11-06T11:04:07.806Z,28.06
2018-11-06T11:04:20.593Z,28.03
2018-11-06T11:05:20.583Z,27.67
2018-11-06T11:06:20.910Z,27.61
2018-11-06T11:07:22.440Z,27.73
2018-11-06T11:08:23.774Z,27.68
2018-11-06T11:09:24.764Z,27.71
2018-11-06T11:10:25.875Z,27.72
2018-11-06T11:11:26.265Z,27.6
2018-11-06T11:12:28.920Z,27.43
2018-11-06T11:13:30.210Z,27.3
2018-11-06T11:14:30.922Z,27.25
2018-11-06T11:15:30.762Z,27.11
2018-11-06T11:16:31.307Z,27.25
2018-11-06T11:17:33.140Z,27.43
2018-11-06T11:18:33.402Z,27.47
2018-11-06T11:19:36.702Z,27.45
2018-11-06T11:20:36.023Z,27.43
2018-11-06T11:21:37.077Z,27.29
2018-11-06T11:22:41.887Z,27.25
2018-11-06T11:23:39.398Z,27.3
2018-11-06T11:24:41.494Z,27.11
2018-11-06T11:25:43.791Z,27.05
2018-11-06T11:26:43.538Z,26.98
2018-11-06T11:27:44.631Z,27.05
2018-11-06T11:28:45.617Z,27.08
2018-11-06T11:29:46.460Z,27.28
2018-11-06T11:30:48.246Z,27.4
2018-11-06T11:31:49.459Z,27.4
2018-11-06T11:32:49.988Z,27.4
2018-11-06T11:33:50.716Z,27.5
2018-11-06T11:34:50.991Z,27.61
2018-11-06T11:35:51.786Z,27.61
2018-11-06T11:36:52.161Z,27.73
2018-11-06T11:37:54.566Z,27.58
2018-11-06T11:38:58.368Z,27.72
2018-11-06T11:40:00.662Z,27.35
2018-11-06T11:40:10.093Z,27.33
2018-11-06T11:41:08.932Z,27.43
2018-11-06T11:42:10.256Z,27.47
2018-11-06T11:43:11.070Z,27.44
2018-11-06T11:44:11.888Z,27.4
2018-11-06T11:45:13.851Z,27.22
2018-11-06T11:46:13.954Z,27.19
2018-11-06T11:47:14.614Z,27.07
2018-11-06T11:48:15.988Z,27.26
2018-11-06T11:49:15.529Z,27.38
2018-11-06T11:50:16.638Z,27.44
2018-11-06T11:51:17.993Z,27.38
2018-11-06T11:52:18.364Z,27.28
2018-11-06T11:53:18.901Z,27.33
2018-11-06T11:54:19.445Z,27.26
2018-11-06T11:55:20.263Z,27.13
2018-11-06T11:56:21.356Z,26.92
2018-11-06T11:57:21.896Z,26.82
2018-11-06T11:58:23.766Z,26.63
2018-11-06T11:59:24.596Z,26.63
2018-11-06T12:00:25.689Z,26.63
2018-11-06T12:01:26.517Z,26.52
2018-11-06T12:02:27.054Z,26.45
2018-11-06T12:03:29.237Z,26.51
2018-11-06T12:04:29.221Z,26.42
2018-11-06T12:05:30.235Z,26.24
2018-11-06T12:06:30.610Z,26.16
2018-11-06T12:07:31.696Z,26.04
2018-11-06T12:08:32.342Z,25.93
2018-11-06T12:09:36.649Z,25.98
2018-11-06T12:10:34.765Z,25.83
2018-11-06T12:11:35.321Z,25.76
2018-11-06T12:12:36.246Z,25.73
2018-11-06T12:13:36.492Z,25.77
2018-11-06T12:14:37.028Z,25.62
2018-11-06T12:15:37.849Z,25.77
2018-11-06T12:16:38.945Z,25.68
2018-11-06T12:17:40.483Z,25.67
2018-11-06T12:18:41.628Z,25.63
2018-11-06T12:19:42.441Z,25.51
2018-11-06T12:20:43.815Z,25.39
2018-11-06T12:21:44.368Z,25.46
2018-11-06T12:22:44.900Z,25.44
2018-11-06T12:23:45.439Z,25.33
2018-11-06T12:24:47.047Z,25.15
2018-11-06T12:25:46.545Z,24.96
2018-11-06T12:26:46.947Z,24.86
2018-11-06T12:27:47.760Z,24.81
2018-11-06T12:28:48.860Z,24.74
2018-11-06T12:29:49.501Z,24.61
2018-11-06T12:30:50.038Z,24.56
2018-11-06T12:31:52.141Z,24.58
2018-11-06T12:32:52.802Z,24.63
2018-11-06T12:33:53.609Z,24.77
2018-11-06T12:34:53.697Z,24.71
2018-11-06T12:35:54.513Z,24.63
2018-11-06T12:36:55.626Z,24.62
2018-11-06T12:37:55.987Z,24.53
2018-11-06T12:38:57.362Z,24.41
2018-11-06T12:39:57.754Z,24.43
2018-11-06T12:40:58.563Z,24.31
2018-11-06T12:41:59.553Z,24.36
2018-11-06T12:43:00.155Z,24.34
2018-11-06T12:44:01.342Z,24.32
2018-11-06T12:45:02.157Z,24.29
2018-11-06T12:46:03.257Z,24.16
2018-11-06T12:47:03.790Z,24.06
2018-11-06T12:48:04.331Z,23.94
2018-11-06T12:49:05.705Z,23.96
2018-11-06T12:50:08.317Z,23.92
2018-11-06T12:50:20.347Z,23.96
2018-11-06T12:51:18.847Z,23.96
2018-11-06T12:52:19.674Z,23.89
2018-11-06T12:53:20.981Z,23.94
2018-11-06T12:54:25.167Z,23.94
2018-11-06T12:54:35.012Z,23.91
2018-11-06T12:55:35.423Z,23.91
2018-11-06T12:56:38.982Z,23.81
2018-11-06T12:56:49.698Z,23.84
2018-11-06T12:57:00.822Z,23.7